sensor_id;sensor_type;location;lat;lon;timestamp;P1;durP1;ratioP1;P2;durP2;ratioP2
27383;SDS011;14851;51.166;4.760;2024-03-08T00:00:38;42.83;;;26.95;;
27383;SDS011;14851;51.166;4.760;2024-03-08T00:03:08;43.92;;;27.02;;
27383;SDS011;14851;51.166;4.760;2024-03-08T00:05:35;41.97;;;26.05;;
27383;SDS011;14851;51.166;4.760;2024-03-08T00:08:08;38.67;;;25.45;;
27383;SDS011;14851;51.166;4.760;2024-03-08T00:10:35;40.63;;;25.52;;
27383;SDS011;14851;51.166;4.760;2024-03-08T00:13:05;42.03;;;25.67;;
27383;SDS011;14851;51.166;4.760;2024-03-08T00:15:32;37.47;;;23.77;;
27383;SDS011;14851;51.166;4.760;2024-03-08T00:17:58;38.08;;;24.52;;
27383;SDS011;14851;51.166;4.760;2024-03-08T00:20:25;39.90;;;25.05;;
27383;SDS011;14851;51.166;4.760;2024-03-08T00:22:54;40.90;;;25.38;;
27383;SDS011;14851;51.166;4.760;2024-03-08T00:25:23;37.72;;;25.63;;
27383;SDS011;14851;51.166;4.760;2024-03-08T00:27:50;41.53;;;25.85;;
27383;SDS011;14851;51.166;4.760;2024-03-08T00:30:21;37.85;;;24.92;;
27383;SDS011;14851;51.166;4.760;2024-03-08T00:32:50;36.30;;;24.42;;
27383;SDS011;14851;51.166;4.760;2024-03-08T00:35:20;36.15;;;22.88;;
27383;SDS011;14851;51.166;4.760;2024-03-08T00:37:46;37.15;;;24.52;;
27383;SDS011;14851;51.166;4.760;2024-03-08T00:40:12;38.38;;;25.65;;
27383;SDS011;14851;51.166;4.760;2024-03-08T00:42:41;36.20;;;24.08;;
27383;SDS011;14851;51.166;4.760;2024-03-08T00:45:11;36.92;;;22.30;;
27383;SDS011;14851;51.166;4.760;2024-03-08T00:47:37;35.10;;;22.48;;
27383;SDS011;14851;51.166;4.760;2024-03-08T00:50:04;34.97;;;24.20;;
27383;SDS011;14851;51.166;4.760;2024-03-08T00:52:31;34.67;;;22.77;;
27383;SDS011;14851;51.166;4.760;2024-03-08T00:55:00;35.17;;;22.05;;
27383;SDS011;14851;51.166;4.760;2024-03-08T00:57:27;34.03;;;23.50;;
27383;SDS011;14851;51.166;4.760;2024-03-08T00:59:53;35.22;;;23.45;;
27383;SDS011;14851;51.166;4.760;2024-03-08T01:02:20;33.67;;;22.27;;
27383;SDS011;14851;51.166;4.760;2024-03-08T01:04:51;30.35;;;21.70;;
27383;SDS011;14851;51.166;4.760;2024-03-08T01:07:17;28.13;;;21.42;;
27383;SDS011;14851;51.166;4.760;2024-03-08T01:09:43;32.63;;;22.70;;
27383;SDS011;14851;51.166;4.760;2024-03-08T01:12:12;32.13;;;20.90;;
27383;SDS011;14851;51.166;4.760;2024-03-08T01:14:39;32.20;;;21.58;;
27383;SDS011;14851;51.166;4.760;2024-03-08T01:17:05;33.22;;;22.73;;
27383;SDS011;14851;51.166;4.760;2024-03-08T01:19:31;30.00;;;21.45;;
27383;SDS011;14851;51.166;4.760;2024-03-08T01:21:58;30.73;;;22.52;;
27383;SDS011;14851;51.166;4.760;2024-03-08T01:24:25;30.10;;;21.98;;
27383;SDS011;14851;51.166;4.760;2024-03-08T01:26:53;30.42;;;21.50;;
27383;SDS011;14851;51.166;4.760;2024-03-08T01:29:20;30.58;;;20.50;;
27383;SDS011;14851;51.166;4.760;2024-03-08T01:31:46;27.25;;;20.90;;
27383;SDS011;14851;51.166;4.760;2024-03-08T01:34:13;26.13;;;20.50;;
27383;SDS011;14851;51.166;4.760;2024-03-08T01:36:39;29.15;;;20.10;;
27383;SDS011;14851;51.166;4.760;2024-03-08T01:39:05;27.55;;;20.65;;
27383;SDS011;14851;51.166;4.760;2024-03-08T01:41:33;25.90;;;19.98;;
27383;SDS011;14851;51.166;4.760;2024-03-08T01:44:01;27.02;;;20.42;;
27383;SDS011;14851;51.166;4.760;2024-03-08T01:46:31;27.50;;;20.83;;
27383;SDS011;14851;51.166;4.760;2024-03-08T01:48:58;27.30;;;19.42;;
27383;SDS011;14851;51.166;4.760;2024-03-08T01:51:29;29.15;;;20.75;;
27383;SDS011;14851;51.166;4.760;2024-03-08T01:53:56;26.58;;;20.27;;
27383;SDS011;14851;51.166;4.760;2024-03-08T01:56:24;23.65;;;19.52;;
27383;SDS011;14851;51.166;4.760;2024-03-08T01:58:51;25.30;;;19.20;;
27383;SDS011;14851;51.166;4.760;2024-03-08T02:01:18;28.58;;;19.58;;
27383;SDS011;14851;51.166;4.760;2024-03-08T02:03:45;33.85;;;20.08;;
27383;SDS011;14851;51.166;4.760;2024-03-08T02:06:12;27.25;;;19.65;;
27383;SDS011;14851;51.166;4.760;2024-03-08T02:08:41;26.63;;;20.77;;
27383;SDS011;14851;51.166;4.760;2024-03-08T02:11:09;25.83;;;20.10;;
27383;SDS011;14851;51.166;4.760;2024-03-08T02:13:35;24.15;;;18.65;;
27383;SDS011;14851;51.166;4.760;2024-03-08T02:16:02;24.77;;;21.02;;
27383;SDS011;14851;51.166;4.760;2024-03-08T02:18:30;26.63;;;20.20;;
27383;SDS011;14851;51.166;4.760;2024-03-08T02:21:00;28.27;;;21.35;;
27383;SDS011;14851;51.166;4.760;2024-03-08T02:23:31;24.58;;;19.00;;
27383;SDS011;14851;51.166;4.760;2024-03-08T02:25:58;27.33;;;19.77;;
27383;SDS011;14851;51.166;4.760;2024-03-08T02:28:25;25.17;;;19.35;;
27383;SDS011;14851;51.166;4.760;2024-03-08T02:30:51;23.17;;;18.77;;
27383;SDS011;14851;51.166;4.760;2024-03-08T02:33:21;24.90;;;19.38;;
27383;SDS011;14851;51.166;4.760;2024-03-08T02:35:48;24.67;;;19.40;;
27383;SDS011;14851;51.166;4.760;2024-03-08T02:38:16;22.60;;;18.52;;
27383;SDS011;14851;51.166;4.760;2024-03-08T02:40:48;26.52;;;20.10;;
27383;SDS011;14851;51.166;4.760;2024-03-08T02:43:15;25.95;;;19.58;;
27383;SDS011;14851;51.166;4.760;2024-03-08T02:45:48;25.08;;;20.33;;
27383;SDS011;14851;51.166;4.760;2024-03-08T02:48:20;25.85;;;20.02;;
27383;SDS011;14851;51.166;4.760;2024-03-08T02:50:49;29.50;;;20.60;;
27383;SDS011;14851;51.166;4.760;2024-03-08T02:53:16;28.17;;;20.08;;
27383;SDS011;14851;51.166;4.760;2024-03-08T02:55:44;27.70;;;19.92;;
27383;SDS011;14851;51.166;4.760;2024-03-08T02:58:10;27.42;;;20.67;;
27383;SDS011;14851;51.166;4.760;2024-03-08T03:00:39;25.70;;;19.58;;
27383;SDS011;14851;51.166;4.760;2024-03-08T03:03:07;27.52;;;19.92;;
27383;SDS011;14851;51.166;4.760;2024-03-08T03:05:33;27.63;;;20.55;;
27383;SDS011;14851;51.166;4.760;2024-03-08T03:08:02;25.08;;;20.67;;
27383;SDS011;14851;51.166;4.760;2024-03-08T03:10:34;26.08;;;19.30;;
27383;SDS011;14851;51.166;4.760;2024-03-08T03:13:01;24.73;;;20.02;;
27383;SDS011;14851;51.166;4.760;2024-03-08T03:15:29;27.30;;;20.55;;
27383;SDS011;14851;51.166;4.760;2024-03-08T03:17:56;27.02;;;20.25;;
27383;SDS011;14851;51.166;4.760;2024-03-08T03:20:22;23.40;;;19.58;;
27383;SDS011;14851;51.166;4.760;2024-03-08T03:22:53;25.50;;;20.10;;
27383;SDS011;14851;51.166;4.760;2024-03-08T03:25:21;27.92;;;21.15;;
27383;SDS011;14851;51.166;4.760;2024-03-08T03:27:54;24.95;;;20.20;;
27383;SDS011;14851;51.166;4.760;2024-03-08T03:30:23;23.23;;;19.33;;
27383;SDS011;14851;51.166;4.760;2024-03-08T03:32:54;25.15;;;19.88;;
27383;SDS011;14851;51.166;4.760;2024-03-08T03:35:24;29.02;;;21.05;;
27383;SDS011;14851;51.166;4.760;2024-03-08T03:37:50;27.55;;;20.27;;
27383;SDS011;14851;51.166;4.760;2024-03-08T03:40:27;27.25;;;20.38;;
27383;SDS011;14851;51.166;4.760;2024-03-08T03:42:54;23.85;;;19.13;;
27383;SDS011;14851;51.166;4.760;2024-03-08T03:45:21;25.33;;;20.58;;
27383;SDS011;14851;51.166;4.760;2024-03-08T03:47:49;26.15;;;20.58;;
27383;SDS011;14851;51.166;4.760;2024-03-08T03:50:20;29.17;;;20.45;;
27383;SDS011;14851;51.166;4.760;2024-03-08T03:52:49;25.63;;;19.77;;
27383;SDS011;14851;51.166;4.760;2024-03-08T03:55:18;26.65;;;20.38;;
27383;SDS011;14851;51.166;4.760;2024-03-08T03:57:45;27.00;;;21.10;;
27383;SDS011;14851;51.166;4.760;2024-03-08T04:00:12;25.55;;;19.70;;
27383;SDS011;14851;51.166;4.760;2024-03-08T04:02:40;28.67;;;20.42;;
27383;SDS011;14851;51.166;4.760;2024-03-08T04:05:06;25.10;;;20.63;;
27383;SDS011;14851;51.166;4.760;2024-03-08T04:07:34;29.67;;;20.38;;
27383;SDS011;14851;51.166;4.760;2024-03-08T04:10:04;29.15;;;20.63;;
27383;SDS011;14851;51.166;4.760;2024-03-08T04:12:35;26.63;;;20.27;;
27383;SDS011;14851;51.166;4.760;2024-03-08T04:15:01;26.92;;;20.80;;
27383;SDS011;14851;51.166;4.760;2024-03-08T04:17:28;30.13;;;22.48;;
27383;SDS011;14851;51.166;4.760;2024-03-08T04:19:56;27.65;;;20.35;;
27383;SDS011;14851;51.166;4.760;2024-03-08T04:22:22;27.92;;;20.30;;
27383;SDS011;14851;51.166;4.760;2024-03-08T04:24:49;26.58;;;20.67;;
27383;SDS011;14851;51.166;4.760;2024-03-08T04:27:16;25.75;;;21.17;;
27383;SDS011;14851;51.166;4.760;2024-03-08T04:29:42;28.58;;;21.27;;
27383;SDS011;14851;51.166;4.760;2024-03-08T04:32:09;26.02;;;20.90;;
27383;SDS011;14851;51.166;4.760;2024-03-08T04:34:39;24.88;;;19.42;;
27383;SDS011;14851;51.166;4.760;2024-03-08T04:37:07;28.60;;;21.30;;
27383;SDS011;14851;51.166;4.760;2024-03-08T04:39:36;27.80;;;21.33;;
27383;SDS011;14851;51.166;4.760;2024-03-08T04:42:02;28.83;;;21.08;;
27383;SDS011;14851;51.166;4.760;2024-03-08T04:44:37;28.95;;;19.80;;
27383;SDS011;14851;51.166;4.760;2024-03-08T04:47:03;29.23;;;20.55;;
27383;SDS011;14851;51.166;4.760;2024-03-08T04:49:33;25.27;;;20.63;;
27383;SDS011;14851;51.166;4.760;2024-03-08T04:52:02;27.08;;;20.85;;
27383;SDS011;14851;51.166;4.760;2024-03-08T04:54:30;31.05;;;22.75;;
27383;SDS011;14851;51.166;4.760;2024-03-08T04:56:57;28.35;;;22.02;;
27383;SDS011;14851;51.166;4.760;2024-03-08T04:59:23;27.67;;;21.42;;
27383;SDS011;14851;51.166;4.760;2024-03-08T05:01:49;29.33;;;22.05;;
27383;SDS011;14851;51.166;4.760;2024-03-08T05:04:16;28.83;;;22.20;;
27383;SDS011;14851;51.166;4.760;2024-03-08T05:06:42;26.73;;;21.85;;
27383;SDS011;14851;51.166;4.760;2024-03-08T05:09:08;30.20;;;21.30;;
27383;SDS011;14851;51.166;4.760;2024-03-08T05:11:44;29.85;;;21.25;;
27383;SDS011;14851;51.166;4.760;2024-03-08T05:14:11;26.20;;;20.92;;
27383;SDS011;14851;51.166;4.760;2024-03-08T05:16:45;28.75;;;22.20;;
27383;SDS011;14851;51.166;4.760;2024-03-08T05:19:15;29.23;;;21.25;;
27383;SDS011;14851;51.166;4.760;2024-03-08T05:21:49;29.35;;;21.70;;
27383;SDS011;14851;51.166;4.760;2024-03-08T05:24:15;30.00;;;21.05;;
27383;SDS011;14851;51.166;4.760;2024-03-08T05:26:42;28.67;;;22.00;;
27383;SDS011;14851;51.166;4.760;2024-03-08T05:29:08;27.30;;;20.60;;
27383;SDS011;14851;51.166;4.760;2024-03-08T05:31:47;30.92;;;22.27;;
27383;SDS011;14851;51.166;4.760;2024-03-08T05:34:18;27.13;;;21.02;;
27383;SDS011;14851;51.166;4.760;2024-03-08T05:36:48;27.50;;;21.27;;
27383;SDS011;14851;51.166;4.760;2024-03-08T05:39:17;30.83;;;23.05;;
27383;SDS011;14851;51.166;4.760;2024-03-08T05:41:45;28.40;;;21.98;;
27383;SDS011;14851;51.166;4.760;2024-03-08T05:44:14;32.70;;;23.48;;
27383;SDS011;14851;51.166;4.760;2024-03-08T05:46:42;30.73;;;22.63;;
27383;SDS011;14851;51.166;4.760;2024-03-08T05:49:09;27.55;;;21.20;;
27383;SDS011;14851;51.166;4.760;2024-03-08T05:51:36;30.40;;;22.85;;
27383;SDS011;14851;51.166;4.760;2024-03-08T05:54:06;33.75;;;22.48;;
27383;SDS011;14851;51.166;4.760;2024-03-08T05:56:37;32.08;;;22.55;;
27383;SDS011;14851;51.166;4.760;2024-03-08T05:59:06;30.35;;;22.13;;
27383;SDS011;14851;51.166;4.760;2024-03-08T06:01:32;30.13;;;23.90;;
27383;SDS011;14851;51.166;4.760;2024-03-08T06:04:02;30.38;;;22.08;;
27383;SDS011;14851;51.166;4.760;2024-03-08T06:10:39;29.30;;;21.52;;
27383;SDS011;14851;51.166;4.760;2024-03-08T06:13:06;30.67;;;22.52;;
27383;SDS011;14851;51.166;4.760;2024-03-08T06:15:32;32.03;;;21.90;;
27383;SDS011;14851;51.166;4.760;2024-03-08T06:18:00;31.70;;;23.25;;
27383;SDS011;14851;51.166;4.760;2024-03-08T06:20:27;31.17;;;22.90;;
27383;SDS011;14851;51.166;4.760;2024-03-08T06:22:53;29.45;;;22.50;;
27383;SDS011;14851;51.166;4.760;2024-03-08T06:25:20;30.73;;;22.42;;
27383;SDS011;14851;51.166;4.760;2024-03-08T06:27:46;31.08;;;22.98;;
27383;SDS011;14851;51.166;4.760;2024-03-08T06:30:13;30.30;;;23.30;;
27383;SDS011;14851;51.166;4.760;2024-03-08T06:32:41;30.83;;;22.60;;
27383;SDS011;14851;51.166;4.760;2024-03-08T06:35:08;30.42;;;22.40;;
27383;SDS011;14851;51.166;4.760;2024-03-08T06:37:35;28.05;;;21.88;;
27383;SDS011;14851;51.166;4.760;2024-03-08T06:40:02;34.63;;;23.05;;
27383;SDS011;14851;51.166;4.760;2024-03-08T06:42:29;31.15;;;23.67;;
27383;SDS011;14851;51.166;4.760;2024-03-08T06:45:00;31.92;;;22.92;;
27383;SDS011;14851;51.166;4.760;2024-03-08T06:47:31;32.08;;;23.25;;
27383;SDS011;14851;51.166;4.760;2024-03-08T06:49:58;32.90;;;23.73;;
27383;SDS011;14851;51.166;4.760;2024-03-08T06:52:27;30.95;;;23.17;;
27383;SDS011;14851;51.166;4.760;2024-03-08T06:54:53;32.58;;;22.88;;
27383;SDS011;14851;51.166;4.760;2024-03-08T06:57:19;29.92;;;21.25;;
27383;SDS011;14851;51.166;4.760;2024-03-08T06:59:47;29.15;;;21.58;;
27383;SDS011;14851;51.166;4.760;2024-03-08T07:02:14;30.45;;;22.83;;
27383;SDS011;14851;51.166;4.760;2024-03-08T07:04:40;32.58;;;23.42;;
27383;SDS011;14851;51.166;4.760;2024-03-08T07:07:07;30.25;;;22.50;;
27383;SDS011;14851;51.166;4.760;2024-03-08T07:09:37;33.45;;;23.25;;
27383;SDS011;14851;51.166;4.760;2024-03-08T07:12:11;33.78;;;22.63;;
27383;SDS011;14851;51.166;4.760;2024-03-08T07:14:39;30.42;;;22.40;;
27383;SDS011;14851;51.166;4.760;2024-03-08T07:17:06;33.88;;;23.27;;
27383;SDS011;14851;51.166;4.760;2024-03-08T07:19:34;32.45;;;22.85;;
27383;SDS011;14851;51.166;4.760;2024-03-08T07:22:03;31.15;;;22.40;;
27383;SDS011;14851;51.166;4.760;2024-03-08T07:27:21;30.60;;;21.77;;
27383;SDS011;14851;51.166;4.760;2024-03-08T07:29:47;31.58;;;22.75;;
27383;SDS011;14851;51.166;4.760;2024-03-08T07:32:14;29.58;;;21.98;;
27383;SDS011;14851;51.166;4.760;2024-03-08T07:34:49;26.13;;;19.17;;
27383;SDS011;14851;51.166;4.760;2024-03-08T07:37:17;29.70;;;21.73;;
27383;SDS011;14851;51.166;4.760;2024-03-08T07:39:47;31.35;;;23.23;;
27383;SDS011;14851;51.166;4.760;2024-03-08T07:42:13;28.60;;;21.73;;
27383;SDS011;14851;51.166;4.760;2024-03-08T07:44:40;35.63;;;20.92;;
27383;SDS011;14851;51.166;4.760;2024-03-08T07:47:06;26.80;;;20.02;;
27383;SDS011;14851;51.166;4.760;2024-03-08T07:49:35;32.45;;;22.92;;
27383;SDS011;14851;51.166;4.760;2024-03-08T07:52:03;24.75;;;17.15;;
27383;SDS011;14851;51.166;4.760;2024-03-08T07:54:30;32.05;;;22.77;;
27383;SDS011;14851;51.166;4.760;2024-03-08T07:56:56;29.05;;;21.90;;
27383;SDS011;14851;51.166;4.760;2024-03-08T07:59:23;27.83;;;20.48;;
27383;SDS011;14851;51.166;4.760;2024-03-08T08:01:50;29.45;;;21.02;;
27383;SDS011;14851;51.166;4.760;2024-03-08T08:04:16;29.17;;;21.02;;
27383;SDS011;14851;51.166;4.760;2024-03-08T08:06:43;29.27;;;21.27;;
27383;SDS011;14851;51.166;4.760;2024-03-08T08:09:09;28.08;;;19.80;;
27383;SDS011;14851;51.166;4.760;2024-03-08T08:11:47;28.77;;;20.23;;
27383;SDS011;14851;51.166;4.760;2024-03-08T08:14:14;27.85;;;20.23;;
27383;SDS011;14851;51.166;4.760;2024-03-08T08:16:41;31.40;;;22.65;;
27383;SDS011;14851;51.166;4.760;2024-03-08T08:19:08;28.55;;;21.20;;
27383;SDS011;14851;51.166;4.760;2024-03-08T08:21:37;28.48;;;19.83;;
27383;SDS011;14851;51.166;4.760;2024-03-08T08:24:03;26.17;;;17.23;;
27383;SDS011;14851;51.166;4.760;2024-03-08T08:26:30;28.33;;;21.10;;
27383;SDS011;14851;51.166;4.760;2024-03-08T08:28:56;26.75;;;20.90;;
27383;SDS011;14851;51.166;4.760;2024-03-08T08:31:22;24.63;;;17.35;;
27383;SDS011;14851;51.166;4.760;2024-03-08T08:33:48;27.58;;;19.42;;
27383;SDS011;14851;51.166;4.760;2024-03-08T08:36:15;26.60;;;19.27;;
27383;SDS011;14851;51.166;4.760;2024-03-08T08:38:43;28.67;;;21.27;;
27383;SDS011;14851;51.166;4.760;2024-03-08T08:41:10;29.70;;;21.65;;
27383;SDS011;14851;51.166;4.760;2024-03-08T08:43:36;21.50;;;15.68;;
27383;SDS011;14851;51.166;4.760;2024-03-08T08:46:04;23.27;;;16.60;;
27383;SDS011;14851;51.166;4.760;2024-03-08T08:48:31;26.10;;;19.30;;
27383;SDS011;14851;51.166;4.760;2024-03-08T08:50:57;35.50;;;23.40;;
27383;SDS011;14851;51.166;4.760;2024-03-08T08:53:23;28.42;;;19.88;;
27383;SDS011;14851;51.166;4.760;2024-03-08T08:55:50;27.88;;;20.77;;
27383;SDS011;14851;51.166;4.760;2024-03-08T08:58:16;30.30;;;20.95;;
27383;SDS011;14851;51.166;4.760;2024-03-08T09:00:43;27.00;;;19.42;;
27383;SDS011;14851;51.166;4.760;2024-03-08T09:03:14;26.13;;;18.48;;
27383;SDS011;14851;51.166;4.760;2024-03-08T09:05:42;24.85;;;18.27;;
27383;SDS011;14851;51.166;4.760;2024-03-08T09:08:10;24.45;;;18.08;;
27383;SDS011;14851;51.166;4.760;2024-03-08T09:10:38;22.58;;;16.38;;
27383;SDS011;14851;51.166;4.760;2024-03-08T09:13:04;26.90;;;18.42;;
27383;SDS011;14851;51.166;4.760;2024-03-08T09:15:31;21.05;;;14.52;;
27383;SDS011;14851;51.166;4.760;2024-03-08T09:17:58;22.38;;;18.42;;
27383;SDS011;14851;51.166;4.760;2024-03-08T09:20:24;23.02;;;17.80;;
27383;SDS011;14851;51.166;4.760;2024-03-08T09:22:51;20.30;;;14.32;;
27383;SDS011;14851;51.166;4.760;2024-03-08T09:25:17;22.30;;;16.45;;
27383;SDS011;14851;51.166;4.760;2024-03-08T09:27:43;24.33;;;18.15;;
27383;SDS011;14851;51.166;4.760;2024-03-08T09:30:12;23.45;;;16.67;;
27383;SDS011;14851;51.166;4.760;2024-03-08T09:32:38;23.10;;;16.42;;
27383;SDS011;14851;51.166;4.760;2024-03-08T09:35:04;22.77;;;16.60;;
27383;SDS011;14851;51.166;4.760;2024-03-08T09:37:35;19.73;;;13.07;;
27383;SDS011;14851;51.166;4.760;2024-03-08T09:42:30;24.13;;;17.52;;
27383;SDS011;14851;51.166;4.760;2024-03-08T09:44:57;23.85;;;16.92;;
27383;SDS011;14851;51.166;4.760;2024-03-08T09:47:24;24.15;;;18.35;;
27383;SDS011;14851;51.166;4.760;2024-03-08T09:49:59;25.92;;;17.27;;
27383;SDS011;14851;51.166;4.760;2024-03-08T09:52:26;18.38;;;12.63;;
27383;SDS011;14851;51.166;4.760;2024-03-08T09:54:52;19.80;;;13.98;;
27383;SDS011;14851;51.166;4.760;2024-03-08T09:57:18;23.17;;;17.17;;
27383;SDS011;14851;51.166;4.760;2024-03-08T09:59:46;21.48;;;15.68;;
27383;SDS011;14851;51.166;4.760;2024-03-08T10:02:14;21.70;;;15.48;;
27383;SDS011;14851;51.166;4.760;2024-03-08T10:04:41;20.05;;;15.32;;
27383;SDS011;14851;51.166;4.760;2024-03-08T10:07:07;20.02;;;14.52;;
27383;SDS011;14851;51.166;4.760;2024-03-08T10:09:33;21.15;;;15.20;;
27383;SDS011;14851;51.166;4.760;2024-03-08T10:12:01;16.38;;;11.85;;
27383;SDS011;14851;51.166;4.760;2024-03-08T10:14:29;21.90;;;14.32;;
27383;SDS011;14851;51.166;4.760;2024-03-08T10:16:58;20.40;;;15.00;;
27383;SDS011;14851;51.166;4.760;2024-03-08T10:19:27;21.30;;;15.32;;
27383;SDS011;14851;51.166;4.760;2024-03-08T10:21:56;17.70;;;13.52;;
27383;SDS011;14851;51.166;4.760;2024-03-08T10:24:24;20.63;;;15.43;;
27383;SDS011;14851;51.166;4.760;2024-03-08T10:27:02;21.25;;;15.77;;
27383;SDS011;14851;51.166;4.760;2024-03-08T10:29:32;19.75;;;14.25;;
27383;SDS011;14851;51.166;4.760;2024-03-08T10:31:58;20.45;;;15.25;;
27383;SDS011;14851;51.166;4.760;2024-03-08T10:34:27;21.17;;;15.68;;
27383;SDS011;14851;51.166;4.760;2024-03-08T10:36:55;21.30;;;16.10;;
27383;SDS011;14851;51.166;4.760;2024-03-08T10:39:29;20.70;;;15.57;;
27383;SDS011;14851;51.166;4.760;2024-03-08T10:42:02;22.13;;;15.23;;
27383;SDS011;14851;51.166;4.760;2024-03-08T10:52:54;21.77;;;16.42;;
27383;SDS011;14851;51.166;4.760;2024-03-08T10:55:29;19.90;;;15.00;;
27383;SDS011;14851;51.166;4.760;2024-03-08T11:02:37;23.73;;;16.15;;
27383;SDS011;14851;51.166;4.760;2024-03-08T11:08:19;18.83;;;14.48;;
27383;SDS011;14851;51.166;4.760;2024-03-08T11:10:52;19.88;;;15.10;;
27383;SDS011;14851;51.166;4.760;2024-03-08T11:22:04;17.73;;;12.38;;
27383;SDS011;14851;51.166;4.760;2024-03-08T11:24:49;20.88;;;15.38;;
27383;SDS011;14851;51.166;4.760;2024-03-08T11:27:19;21.33;;;15.40;;
27383;SDS011;14851;51.166;4.760;2024-03-08T11:30:02;18.73;;;15.07;;
27383;SDS011;14851;51.166;4.760;2024-03-08T11:32:47;19.88;;;15.32;;
27383;SDS011;14851;51.166;4.760;2024-03-08T11:35:21;17.85;;;14.43;;
27383;SDS011;14851;51.166;4.760;2024-03-08T11:37:57;21.38;;;15.00;;
27383;SDS011;14851;51.166;4.760;2024-03-08T11:41:01;19.65;;;14.38;;
27383;SDS011;14851;51.166;4.760;2024-03-08T11:46:36;19.00;;;15.15;;
27383;SDS011;14851;51.166;4.760;2024-03-08T11:49:15;20.13;;;15.65;;
27383;SDS011;14851;51.166;4.760;2024-03-08T11:52:11;18.35;;;14.75;;
27383;SDS011;14851;51.166;4.760;2024-03-08T11:54:51;22.60;;;14.35;;
27383;SDS011;14851;51.166;4.760;2024-03-08T11:57:25;21.15;;;14.80;;
27383;SDS011;14851;51.166;4.760;2024-03-08T12:00:19;21.33;;;16.20;;
27383;SDS011;14851;51.166;4.760;2024-03-08T12:03:05;21.17;;;14.77;;
27383;SDS011;14851;51.166;4.760;2024-03-08T12:05:33;17.45;;;14.35;;
27383;SDS011;14851;51.166;4.760;2024-03-08T12:08:18;18.27;;;14.43;;
27383;SDS011;14851;51.166;4.760;2024-03-08T12:10:47;18.08;;;13.60;;
27383;SDS011;14851;51.166;4.760;2024-03-08T12:13:35;18.23;;;13.75;;
27383;SDS011;14851;51.166;4.760;2024-03-08T12:16:21;20.65;;;16.27;;
27383;SDS011;14851;51.166;4.760;2024-03-08T12:18:50;19.98;;;14.27;;
27383;SDS011;14851;51.166;4.760;2024-03-08T12:21:21;18.20;;;14.07;;
27383;SDS011;14851;51.166;4.760;2024-03-08T12:24:07;18.92;;;15.60;;
27383;SDS011;14851;51.166;4.760;2024-03-08T12:26:45;21.73;;;16.00;;
27383;SDS011;14851;51.166;4.760;2024-03-08T12:29:27;19.95;;;15.23;;
27383;SDS011;14851;51.166;4.760;2024-03-08T12:32:07;21.23;;;15.38;;
27383;SDS011;14851;51.166;4.760;2024-03-08T12:34:40;21.75;;;14.43;;
27383;SDS011;14851;51.166;4.760;2024-03-08T12:37:09;20.08;;;15.43;;
27383;SDS011;14851;51.166;4.760;2024-03-08T12:39:57;19.42;;;13.95;;
27383;SDS011;14851;51.166;4.760;2024-03-08T12:42:30;20.95;;;15.63;;
27383;SDS011;14851;51.166;4.760;2024-03-08T12:45:08;19.35;;;14.98;;
27383;SDS011;14851;51.166;4.760;2024-03-08T12:48:00;16.40;;;12.68;;
27383;SDS011;14851;51.166;4.760;2024-03-08T12:50:42;18.75;;;15.43;;
27383;SDS011;14851;51.166;4.760;2024-03-08T12:53:13;20.20;;;15.65;;
27383;SDS011;14851;51.166;4.760;2024-03-08T12:56:07;16.42;;;13.32;;
27383;SDS011;14851;51.166;4.760;2024-03-08T12:58:40;17.88;;;13.40;;
27383;SDS011;14851;51.166;4.760;2024-03-08T13:05:06;17.63;;;13.82;;
27383;SDS011;14851;51.166;4.760;2024-03-08T13:07:55;19.65;;;14.98;;
27383;SDS011;14851;51.166;4.760;2024-03-08T13:10:47;18.98;;;13.73;;
27383;SDS011;14851;51.166;4.760;2024-03-08T13:13:16;14.27;;;11.30;;
27383;SDS011;14851;51.166;4.760;2024-03-08T13:15:57;15.77;;;12.65;;
27383;SDS011;14851;51.166;4.760;2024-03-08T13:40:14;18.67;;;14.70;;
27383;SDS011;14851;51.166;4.760;2024-03-08T13:43:01;16.13;;;12.13;;
27383;SDS011;14851;51.166;4.760;2024-03-08T13:45:36;16.88;;;13.63;;
27383;SDS011;14851;51.166;4.760;2024-03-08T13:48:07;17.23;;;13.18;;
27383;SDS011;14851;51.166;4.760;2024-03-08T13:50:38;17.92;;;13.38;;
27383;SDS011;14851;51.166;4.760;2024-03-08T13:53:05;17.77;;;13.32;;
27383;SDS011;14851;51.166;4.760;2024-03-08T13:55:34;18.10;;;13.30;;
27383;SDS011;14851;51.166;4.760;2024-03-08T13:58:00;17.65;;;13.20;;
27383;SDS011;14851;51.166;4.760;2024-03-08T14:00:28;18.85;;;13.30;;
27383;SDS011;14851;51.166;4.760;2024-03-08T14:02:59;14.85;;;10.73;;
27383;SDS011;14851;51.166;4.760;2024-03-08T14:05:25;18.05;;;13.45;;
27383;SDS011;14851;51.166;4.760;2024-03-08T14:07:55;15.52;;;12.15;;
27383;SDS011;14851;51.166;4.760;2024-03-08T14:10:21;16.02;;;12.75;;
27383;SDS011;14851;51.166;4.760;2024-03-08T14:12:48;16.23;;;12.85;;
27383;SDS011;14851;51.166;4.760;2024-03-08T14:15:15;15.88;;;13.40;;
27383;SDS011;14851;51.166;4.760;2024-03-08T14:17:42;17.05;;;13.05;;
27383;SDS011;14851;51.166;4.760;2024-03-08T14:20:11;17.30;;;13.63;;
27383;SDS011;14851;51.166;4.760;2024-03-08T14:22:38;14.93;;;11.43;;
27383;SDS011;14851;51.166;4.760;2024-03-08T14:25:05;16.48;;;13.05;;
27383;SDS011;14851;51.166;4.760;2024-03-08T14:27:31;19.52;;;13.05;;
27383;SDS011;14851;51.166;4.760;2024-03-08T14:29:58;18.42;;;12.85;;
27383;SDS011;14851;51.166;4.760;2024-03-08T14:32:25;15.38;;;10.77;;
27383;SDS011;14851;51.166;4.760;2024-03-08T14:34:51;12.57;;;10.98;;
27383;SDS011;14851;51.166;4.760;2024-03-08T14:37:17;14.60;;;12.27;;
27383;SDS011;14851;51.166;4.760;2024-03-08T14:39:48;15.35;;;12.18;;
27383;SDS011;14851;51.166;4.760;2024-03-08T14:42:17;16.02;;;12.82;;
27383;SDS011;14851;51.166;4.760;2024-03-08T14:44:44;13.57;;;10.98;;
27383;SDS011;14851;51.166;4.760;2024-03-08T14:47:15;16.60;;;12.10;;
27383;SDS011;14851;51.166;4.760;2024-03-08T14:49:42;15.80;;;11.88;;
27383;SDS011;14851;51.166;4.760;2024-03-08T14:52:09;13.57;;;11.35;;
27383;SDS011;14851;51.166;4.760;2024-03-08T14:54:54;16.23;;;13.13;;
27383;SDS011;14851;51.166;4.760;2024-03-08T14:57:21;15.73;;;12.07;;
27383;SDS011;14851;51.166;4.760;2024-03-08T14:59:51;14.65;;;11.60;;
27383;SDS011;14851;51.166;4.760;2024-03-08T15:02:17;18.73;;;12.20;;
27383;SDS011;14851;51.166;4.760;2024-03-08T15:04:46;18.33;;;12.07;;
27383;SDS011;14851;51.166;4.760;2024-03-08T15:07:24;13.88;;;11.50;;
27383;SDS011;14851;51.166;4.760;2024-03-08T15:09:51;16.88;;;11.02;;
27383;SDS011;14851;51.166;4.760;2024-03-08T15:12:17;15.85;;;12.00;;
27383;SDS011;14851;51.166;4.760;2024-03-08T15:14:44;17.17;;;11.85;;
27383;SDS011;14851;51.166;4.760;2024-03-08T15:17:12;18.50;;;12.10;;
27383;SDS011;14851;51.166;4.760;2024-03-08T15:19:47;17.92;;;12.38;;
27383;SDS011;14851;51.166;4.760;2024-03-08T15:22:14;16.95;;;11.32;;
27383;SDS011;14851;51.166;4.760;2024-03-08T15:24:45;16.45;;;11.80;;
27383;SDS011;14851;51.166;4.760;2024-03-08T15:27:18;15.85;;;10.68;;
27383;SDS011;14851;51.166;4.760;2024-03-08T15:29:54;14.05;;;11.98;;
27383;SDS011;14851;51.166;4.760;2024-03-08T15:32:21;13.35;;;11.10;;
27383;SDS011;14851;51.166;4.760;2024-03-08T15:34:48;14.23;;;11.18;;
27383;SDS011;14851;51.166;4.760;2024-03-08T15:37:14;14.13;;;11.18;;